2026/07/23

Sensor Date Temp./Hum.
h4-hermonville 23-07-2026 - 23:58 19.7°C / 56%
h2-hermonville 23-07-2026 - 23:54 21°C / 54.5%
h1-hermonville 23-07-2026 - 23:54 17.5°C / 64.5%
h3-hermonville 23-07-2026 - 23:50 19.3°C / 58.5%
h4-hermonville 23-07-2026 - 23:48 19.8°C / 56%
h2-hermonville 23-07-2026 - 23:44 21°C / 53.5%
h1-hermonville 23-07-2026 - 23:44 17.8°C / 63.5%
h3-hermonville 23-07-2026 - 23:40 19.4°C / 58%
h4-hermonville 23-07-2026 - 23:38 19.8°C / 56%
h2-hermonville 23-07-2026 - 23:34 21.6°C / 52.5%
h1-hermonville 23-07-2026 - 23:34 18°C / 63%
h3-hermonville 23-07-2026 - 23:30 19.5°C / 57.5%
h4-hermonville 23-07-2026 - 23:28 19.9°C / 55.5%
h2-hermonville 23-07-2026 - 23:24 21.6°C / 52%
h1-hermonville 23-07-2026 - 23:24 18.1°C / 62.5%
h3-hermonville 23-07-2026 - 23:20 19.7°C / 57%
h4-hermonville 23-07-2026 - 23:18 20°C / 55.5%
h1-hermonville 23-07-2026 - 23:14 18.4°C / 61.5%
h3-hermonville 23-07-2026 - 23:10 19.9°C / 56.5%
h4-hermonville 23-07-2026 - 23:08 20°C / 55.5%
h2-hermonville 23-07-2026 - 23:04 21.8°C / 52%
h1-hermonville 23-07-2026 - 23:04 18.5°C / 61.5%
h3-hermonville 23-07-2026 - 23:00 20°C / 56%
h4-hermonville 23-07-2026 - 22:58 20°C / 55%
h2-hermonville 23-07-2026 - 22:54 21.9°C / 52%
h1-hermonville 23-07-2026 - 22:54 18.6°C / 60.5%
h3-hermonville 23-07-2026 - 22:50 20°C / 56%
h4-hermonville 23-07-2026 - 22:48 20.3°C / 54.5%
h2-hermonville 23-07-2026 - 22:44 22.2°C / 51%
h1-hermonville 23-07-2026 - 22:44 18.7°C / 60.5%
h3-hermonville 23-07-2026 - 22:40 20.1°C / 55.5%
h4-hermonville 23-07-2026 - 22:38 20.5°C / 54.5%
h2-hermonville 23-07-2026 - 22:34 22.2°C / 51%
h1-hermonville 23-07-2026 - 22:34 18.9°C / 60%
h3-hermonville 23-07-2026 - 22:30 20.2°C / 55%
h4-hermonville 23-07-2026 - 22:28 20.4°C / 54%
h2-hermonville 23-07-2026 - 22:24 22.7°C / 49.5%
h1-hermonville 23-07-2026 - 22:24 19°C / 59.5%
h3-hermonville 23-07-2026 - 22:20 20.5°C / 54.5%
h4-hermonville 23-07-2026 - 22:18 20.5°C / 54%
h2-hermonville 23-07-2026 - 22:14 22.9°C / 49.5%
h1-hermonville 23-07-2026 - 22:14 19.2°C / 59%
h3-hermonville 23-07-2026 - 22:10 20.5°C / 54%
h4-hermonville 23-07-2026 - 22:08 20.6°C / 53.5%
h2-hermonville 23-07-2026 - 22:04 23.1°C / 48.5%
h1-hermonville 23-07-2026 - 22:04 19.3°C / 57.5%
h3-hermonville 23-07-2026 - 22:00 20.7°C / 53.5%
h4-hermonville 23-07-2026 - 21:58 20.7°C / 52.5%
h2-hermonville 23-07-2026 - 21:54 23.2°C / 47.5%
h1-hermonville 23-07-2026 - 21:54 19.7°C / 56.5%
h3-hermonville 23-07-2026 - 21:50 20.9°C / 52.5%
h4-hermonville 23-07-2026 - 21:48 20.8°C / 52.5%
h2-hermonville 23-07-2026 - 21:44 23.5°C / 47.5%
h1-hermonville 23-07-2026 - 21:44 19.8°C / 55.5%
h3-hermonville 23-07-2026 - 21:40 21.1°C / 52%
h4-hermonville 23-07-2026 - 21:38 21°C / 51.5%
h2-hermonville 23-07-2026 - 21:34 23.3°C / 47%
h1-hermonville 23-07-2026 - 21:34 20.3°C / 55%
h3-hermonville 23-07-2026 - 21:30 21.4°C / 51.5%
h4-hermonville 23-07-2026 - 21:28 21°C / 51.5%
h2-hermonville 23-07-2026 - 21:24 23.4°C / 48%
h1-hermonville 23-07-2026 - 21:24 20.6°C / 54%
h3-hermonville 23-07-2026 - 21:20 21.6°C / 51%
h4-hermonville 23-07-2026 - 21:18 21.3°C / 51%
h2-hermonville 23-07-2026 - 21:14 23.6°C / 47%
h1-hermonville 23-07-2026 - 21:14 20.9°C / 53%
h3-hermonville 23-07-2026 - 21:10 21.7°C / 49.5%
h4-hermonville 23-07-2026 - 21:08 21.4°C / 50%
h2-hermonville 23-07-2026 - 21:04 23.8°C / 46%
h1-hermonville 23-07-2026 - 21:04 21.2°C / 51.5%
h3-hermonville 23-07-2026 - 21:00 22°C / 49.5%
h4-hermonville 23-07-2026 - 20:58 21.6°C / 49.5%
h2-hermonville 23-07-2026 - 20:54 24.1°C / 45.5%
h1-hermonville 23-07-2026 - 20:54 21.6°C / 50.5%
h3-hermonville 23-07-2026 - 20:50 22.1°C / 48.5%
h4-hermonville 23-07-2026 - 20:48 21.7°C / 48.5%
h2-hermonville 23-07-2026 - 20:44 24.2°C / 44%
h1-hermonville 23-07-2026 - 20:44 21.8°C / 49.5%
h3-hermonville 23-07-2026 - 20:40 22.2°C / 47.5%
h4-hermonville 23-07-2026 - 20:38 21.9°C / 48.5%
h2-hermonville 23-07-2026 - 20:34 24.2°C / 45%
h1-hermonville 23-07-2026 - 20:34 21.9°C / 49.5%
h3-hermonville 23-07-2026 - 20:30 22.5°C / 48%
h4-hermonville 23-07-2026 - 20:28 22°C / 48.5%
h2-hermonville 23-07-2026 - 20:24 24.6°C / 43.5%
h1-hermonville 23-07-2026 - 20:24 21.9°C / 49%
h3-hermonville 23-07-2026 - 20:20 22.3°C / 47%
h4-hermonville 23-07-2026 - 20:18 22°C / 47.5%
h2-hermonville 23-07-2026 - 20:14 24.5°C / 43%
h1-hermonville 23-07-2026 - 20:14 21.9°C / 48.5%
h3-hermonville 23-07-2026 - 20:10 22.5°C / 47.5%
h4-hermonville 23-07-2026 - 20:08 22°C / 48.5%
h2-hermonville 23-07-2026 - 20:04 24.8°C / 43.5%
h1-hermonville 23-07-2026 - 20:04 21.9°C / 49.5%
h3-hermonville 23-07-2026 - 20:00 22.7°C / 47.5%
h4-hermonville 23-07-2026 - 19:58 22.2°C / 48%
h2-hermonville 23-07-2026 - 19:54 25.4°C / 42.5%
h1-hermonville 23-07-2026 - 19:54 22°C / 49.5%
h3-hermonville 23-07-2026 - 19:50 22.8°C / 46.5%
h4-hermonville 23-07-2026 - 19:48 22.3°C / 47.5%
h2-hermonville 23-07-2026 - 19:44 26.6°C / 39.5%
h1-hermonville 23-07-2026 - 19:44 22.3°C / 48%
h3-hermonville 23-07-2026 - 19:40 23.2°C / 46%
h4-hermonville 23-07-2026 - 19:38 22.6°C / 47%
h2-hermonville 23-07-2026 - 19:34 29.3°C / 35.5%
h1-hermonville 23-07-2026 - 19:34 22.8°C / 47%
h3-hermonville 23-07-2026 - 19:30 23°C / 46.5%
h4-hermonville 23-07-2026 - 19:28 22.5°C / 47.5%
h2-hermonville 23-07-2026 - 19:24 29.1°C / 36.5%
h1-hermonville 23-07-2026 - 19:24 22.5°C / 47.5%
h3-hermonville 23-07-2026 - 19:20 23.1°C / 46%
h4-hermonville 23-07-2026 - 19:18 22.6°C / 47%
h2-hermonville 23-07-2026 - 19:14 28.3°C / 37%
h3-hermonville 23-07-2026 - 19:10 22.9°C / 46.5%
h1-hermonville 23-07-2026 - 19:04 22.3°C / 49%
h3-hermonville 23-07-2026 - 19:00 22.8°C / 47%
h2-hermonville 23-07-2026 - 18:54 27.8°C / 38%
h1-hermonville 23-07-2026 - 18:54 22.2°C / 49%
h3-hermonville 23-07-2026 - 18:50 22.8°C / 47%
h2-hermonville 23-07-2026 - 18:44 27.1°C / 40.5%
h1-hermonville 23-07-2026 - 18:44 22.3°C / 48.5%
h3-hermonville 23-07-2026 - 18:40 23.1°C / 46.5%
h4-hermonville 23-07-2026 - 18:38 22.8°C / 47%
h1-hermonville 23-07-2026 - 18:34 22.8°C / 48.5%
h3-hermonville 23-07-2026 - 18:30 23.4°C / 46.5%
h2-hermonville 23-07-2026 - 18:24 28.8°C / 36%
h1-hermonville 23-07-2026 - 18:24 22.7°C / 48%
h3-hermonville 23-07-2026 - 18:20 23.4°C / 45.5%
h1-hermonville 23-07-2026 - 18:14 22.4°C / 47.5%
h3-hermonville 23-07-2026 - 18:10 23.3°C / 45%
h2-hermonville 23-07-2026 - 18:04 28.3°C / 38%
h1-hermonville 23-07-2026 - 18:04 22.3°C / 48%
h3-hermonville 23-07-2026 - 18:00 23.4°C / 46%
h2-hermonville 23-07-2026 - 17:54 27.9°C / 38%
h1-hermonville 23-07-2026 - 17:54 22.2°C / 48.5%
h3-hermonville 23-07-2026 - 17:50 23.1°C / 46.5%
h2-hermonville 23-07-2026 - 17:44 27.1°C / 40%
h1-hermonville 23-07-2026 - 17:44 22.1°C / 50%
h3-hermonville 23-07-2026 - 17:40 23.2°C / 46.5%
h1-hermonville 23-07-2026 - 17:34 22.1°C / 50%
h3-hermonville 23-07-2026 - 17:30 23.2°C / 46%
h1-hermonville 23-07-2026 - 17:24 22.4°C / 49%
h3-hermonville 23-07-2026 - 17:20 23.4°C / 46%
h1-hermonville 23-07-2026 - 17:14 22.7°C / 49%
h3-hermonville 23-07-2026 - 17:10 23.7°C / 45.5%
h1-hermonville 23-07-2026 - 17:04 22.5°C / 48%
h3-hermonville 23-07-2026 - 17:00 23.6°C / 45%
h4-hermonville 23-07-2026 - 16:58 22.7°C / 47%
h2-hermonville 23-07-2026 - 16:54 27.1°C / 39%
h1-hermonville 23-07-2026 - 16:54 22.7°C / 48%
h3-hermonville 23-07-2026 - 16:50 23.6°C / 46.5%
h1-hermonville 23-07-2026 - 16:44 22.2°C / 49.5%
h3-hermonville 23-07-2026 - 16:40 23.4°C / 46%
h1-hermonville 23-07-2026 - 16:34 22.5°C / 48.5%
h3-hermonville 23-07-2026 - 16:30 23.1°C / 46.5%
h1-hermonville 23-07-2026 - 16:24 22.5°C / 48%
h3-hermonville 23-07-2026 - 16:20 23.6°C / 44%
h2-hermonville 23-07-2026 - 16:14 25.5°C / 42%
h1-hermonville 23-07-2026 - 16:14 21.9°C / 49.5%
h3-hermonville 23-07-2026 - 16:10 23.4°C / 46.5%
h1-hermonville 23-07-2026 - 16:04 22.3°C / 49%
h3-hermonville 23-07-2026 - 16:00 23.3°C / 45%
h4-hermonville 23-07-2026 - 15:58 22.4°C / 46.5%
h2-hermonville 23-07-2026 - 15:54 24.9°C / 44%
h1-hermonville 23-07-2026 - 15:54 21.9°C / 48%
h3-hermonville 23-07-2026 - 15:50 23.3°C / 45.5%
h1-hermonville 23-07-2026 - 15:44 21.9°C / 49.5%
h3-hermonville 23-07-2026 - 15:40 22.7°C / 47.5%
h4-hermonville 23-07-2026 - 15:38 22.4°C / 47.5%
h2-hermonville 23-07-2026 - 15:34 24°C / 46%
h1-hermonville 23-07-2026 - 15:34 21.6°C / 51%
h3-hermonville 23-07-2026 - 15:30 22.6°C / 47.5%
h4-hermonville 23-07-2026 - 15:28 22.3°C / 48%
h2-hermonville 23-07-2026 - 15:24 23.9°C / 46.5%
h1-hermonville 23-07-2026 - 15:24 21.3°C / 51%
h3-hermonville 23-07-2026 - 15:20 22.7°C / 47.5%
h4-hermonville 23-07-2026 - 15:18 22.5°C / 48.5%
h2-hermonville 23-07-2026 - 15:14 24°C / 46.5%
h1-hermonville 23-07-2026 - 15:14 21.6°C / 50.5%
h3-hermonville 23-07-2026 - 15:10 22.5°C / 49%
h2-hermonville 23-07-2026 - 15:04 23.8°C / 46.5%
h1-hermonville 23-07-2026 - 15:04 21.6°C / 51%
h3-hermonville 23-07-2026 - 15:00 22.4°C / 47.5%
h4-hermonville 23-07-2026 - 14:58 22.2°C / 47.5%
h2-hermonville 23-07-2026 - 14:54 23.7°C / 47.5%
h1-hermonville 23-07-2026 - 14:54 21.2°C / 52.5%
h3-hermonville 23-07-2026 - 14:50 22°C / 50.5%
h4-hermonville 23-07-2026 - 14:48 22°C / 49.5%
h2-hermonville 23-07-2026 - 14:44 23.6°C / 47.5%
h1-hermonville 23-07-2026 - 14:44 20.9°C / 53%
h3-hermonville 23-07-2026 - 14:40 22.2°C / 49%
h4-hermonville 23-07-2026 - 14:38 22.1°C / 48%
h2-hermonville 23-07-2026 - 14:34 23.3°C / 47%
h1-hermonville 23-07-2026 - 14:34 21.2°C / 51%
h3-hermonville 23-07-2026 - 14:30 22.3°C / 48%
h4-hermonville 23-07-2026 - 14:28 22.2°C / 47.5%
h2-hermonville 23-07-2026 - 14:24 23.1°C / 47.5%
h1-hermonville 23-07-2026 - 14:24 20.9°C / 51%
h3-hermonville 23-07-2026 - 14:20 21.7°C / 49%
h4-hermonville 23-07-2026 - 14:18 22.1°C / 47.5%
h2-hermonville 23-07-2026 - 14:14 23°C / 46.5%
h1-hermonville 23-07-2026 - 14:14 20.7°C / 51.5%
h3-hermonville 23-07-2026 - 14:10 21.7°C / 49%
h4-hermonville 23-07-2026 - 14:08 22.1°C / 47.5%
h2-hermonville 23-07-2026 - 14:04 22.8°C / 48%
h1-hermonville 23-07-2026 - 14:04 20.9°C / 51.5%
h3-hermonville 23-07-2026 - 14:00 21.8°C / 48.5%
h4-hermonville 23-07-2026 - 13:58 22.2°C / 47%
h2-hermonville 23-07-2026 - 13:54 23°C / 47.5%
h1-hermonville 23-07-2026 - 13:54 21.1°C / 50.5%
h3-hermonville 23-07-2026 - 13:50 21.6°C / 49%
h4-hermonville 23-07-2026 - 13:48 22.3°C / 46.5%
h2-hermonville 23-07-2026 - 13:44 23°C / 47%
h1-hermonville 23-07-2026 - 13:44 20.9°C / 50%
h3-hermonville 23-07-2026 - 13:40 21.7°C / 49%
h4-hermonville 23-07-2026 - 13:38 22.1°C / 46.5%
h2-hermonville 23-07-2026 - 13:34 22.8°C / 47%
h1-hermonville 23-07-2026 - 13:34 20.6°C / 52%
h3-hermonville 23-07-2026 - 13:30 21.2°C / 49%
h4-hermonville 23-07-2026 - 13:28 21.9°C / 47%
h2-hermonville 23-07-2026 - 13:24 22.5°C / 47.5%
h1-hermonville 23-07-2026 - 13:24 20.2°C / 52.5%
h3-hermonville 23-07-2026 - 13:20 21.1°C / 49.5%
h4-hermonville 23-07-2026 - 13:18 21.9°C / 47.5%
h2-hermonville 23-07-2026 - 13:14 22.5°C / 48.5%
h1-hermonville 23-07-2026 - 13:14 20.4°C / 52%
h3-hermonville 23-07-2026 - 13:10 20.8°C / 50.5%
h4-hermonville 23-07-2026 - 13:08 21.8°C / 47%
h2-hermonville 23-07-2026 - 13:04 22.3°C / 48.5%
h1-hermonville 23-07-2026 - 13:04 20.3°C / 52%
h3-hermonville 23-07-2026 - 13:00 21.1°C / 49.5%
h4-hermonville 23-07-2026 - 12:58 21.6°C / 47.5%
h2-hermonville 23-07-2026 - 12:54 22.2°C / 48.5%
h1-hermonville 23-07-2026 - 12:54 19.9°C / 52.5%
h3-hermonville 23-07-2026 - 12:50 20.5°C / 50.5%
h4-hermonville 23-07-2026 - 12:48 21.9°C / 47.5%
h2-hermonville 23-07-2026 - 12:44 21.9°C / 50%
h1-hermonville 23-07-2026 - 12:44 19.6°C / 54.5%
h3-hermonville 23-07-2026 - 12:40 20.2°C / 52.5%
h4-hermonville 23-07-2026 - 12:38 21.4°C / 49%
h2-hermonville 23-07-2026 - 12:34 21.7°C / 51%
h1-hermonville 23-07-2026 - 12:34 19.3°C / 55.5%
h3-hermonville 23-07-2026 - 12:30 20.2°C / 53%
h4-hermonville 23-07-2026 - 12:28 21.5°C / 49.5%
h2-hermonville 23-07-2026 - 12:24 21.6°C / 50.5%
h1-hermonville 23-07-2026 - 12:24 19.1°C / 56.5%
h3-hermonville 23-07-2026 - 12:20 20.2°C / 52.5%
h4-hermonville 23-07-2026 - 12:18 21.1°C / 49.5%
h2-hermonville 23-07-2026 - 12:14 21.2°C / 50.5%
h1-hermonville 23-07-2026 - 12:14 18.7°C / 56.5%
h3-hermonville 23-07-2026 - 12:10 19.7°C / 55%
h4-hermonville 23-07-2026 - 12:08 21°C / 50.5%
h2-hermonville 23-07-2026 - 12:04 21.5°C / 51%
h1-hermonville 23-07-2026 - 12:04 18.5°C / 58.5%
h3-hermonville 23-07-2026 - 12:00 19.6°C / 55%
h4-hermonville 23-07-2026 - 11:58 21.1°C / 50.5%
h2-hermonville 23-07-2026 - 11:54 21.2°C / 52%
h1-hermonville 23-07-2026 - 11:54 18.5°C / 58.5%
h3-hermonville 23-07-2026 - 11:50 19.7°C / 54%
h4-hermonville 23-07-2026 - 11:48 21.2°C / 49.5%
h2-hermonville 23-07-2026 - 11:44 21°C / 52%
h1-hermonville 23-07-2026 - 11:44 18.7°C / 57%
h3-hermonville 23-07-2026 - 11:40 19.8°C / 53.5%
h4-hermonville 23-07-2026 - 11:38 21°C / 49.5%
h2-hermonville 23-07-2026 - 11:34 20.9°C / 52%
h1-hermonville 23-07-2026 - 11:34 18.5°C / 57.5%
h3-hermonville 23-07-2026 - 11:30 19.9°C / 53%
h4-hermonville 23-07-2026 - 11:28 20.4°C / 49.5%
h2-hermonville 23-07-2026 - 11:24 20.5°C / 51%
h1-hermonville 23-07-2026 - 11:24 18.7°C / 54.5%
h3-hermonville 23-07-2026 - 11:20 19.8°C / 52.5%
h4-hermonville 23-07-2026 - 11:18 20.6°C / 47.5%
h2-hermonville 23-07-2026 - 11:14 20.6°C / 50.5%
h1-hermonville 23-07-2026 - 11:14 18.6°C / 55.5%
h3-hermonville 23-07-2026 - 11:10 19.5°C / 52.5%
h4-hermonville 23-07-2026 - 11:08 20.3°C / 49%
h2-hermonville 23-07-2026 - 11:04 20.5°C / 52%
h1-hermonville 23-07-2026 - 11:04 18.2°C / 55.5%
h3-hermonville 23-07-2026 - 11:00 19.2°C / 52.5%
h4-hermonville 23-07-2026 - 10:58 20.6°C / 48.5%
h2-hermonville 23-07-2026 - 10:54 20.2°C / 53%
h1-hermonville 23-07-2026 - 10:54 18.1°C / 56%
h3-hermonville 23-07-2026 - 10:50 19.2°C / 53.5%
h4-hermonville 23-07-2026 - 10:48 19.9°C / 49.5%
h2-hermonville 23-07-2026 - 10:44 20.1°C / 54%
h1-hermonville 23-07-2026 - 10:44 17.9°C / 57.5%
h3-hermonville 23-07-2026 - 10:40 18.9°C / 54.5%
h4-hermonville 23-07-2026 - 10:38 20.5°C / 49%
h2-hermonville 23-07-2026 - 10:34 19.9°C / 52%
h1-hermonville 23-07-2026 - 10:34 17.9°C / 57.5%
h3-hermonville 23-07-2026 - 10:30 18.7°C / 54.5%
h4-hermonville 23-07-2026 - 10:28 20.6°C / 50.5%
h2-hermonville 23-07-2026 - 10:24 19.8°C / 55%
h1-hermonville 23-07-2026 - 10:24 17.5°C / 59%
h3-hermonville 23-07-2026 - 10:20 18.5°C / 55.5%
h4-hermonville 23-07-2026 - 10:18 20.1°C / 51.5%
h2-hermonville 23-07-2026 - 10:14 19.3°C / 55.5%
h1-hermonville 23-07-2026 - 10:14 17.5°C / 60.5%
h3-hermonville 23-07-2026 - 10:10 18.4°C / 57%
h4-hermonville 23-07-2026 - 10:08 19.8°C / 52%
h2-hermonville 23-07-2026 - 10:04 19.3°C / 56.5%
h1-hermonville 23-07-2026 - 10:04 17.2°C / 62%
h3-hermonville 23-07-2026 - 10:00 18.7°C / 58.5%
h4-hermonville 23-07-2026 - 09:58 20.4°C / 52%
h2-hermonville 23-07-2026 - 09:54 19.3°C / 58%
h1-hermonville 23-07-2026 - 09:54 17.1°C / 64%
h3-hermonville 23-07-2026 - 09:50 18.6°C / 57.5%
h4-hermonville 23-07-2026 - 09:48 22.4°C / 47.5%
h2-hermonville 23-07-2026 - 09:44 19°C / 58%
h1-hermonville 23-07-2026 - 09:44 17°C / 63.5%
h3-hermonville 23-07-2026 - 09:40 18.5°C / 61.5%
h4-hermonville 23-07-2026 - 09:38 23.5°C / 45%
h2-hermonville 23-07-2026 - 09:34 18.6°C / 60%
h1-hermonville 23-07-2026 - 09:34 16.7°C / 67%
h3-hermonville 23-07-2026 - 09:30 18.3°C / 62%
h4-hermonville 23-07-2026 - 09:28 22.1°C / 50.5%
h2-hermonville 23-07-2026 - 09:24 18.4°C / 64%
h1-hermonville 23-07-2026 - 09:24 16.3°C / 70%
h3-hermonville 23-07-2026 - 09:20 17.7°C / 67%
h4-hermonville 23-07-2026 - 09:18 23.1°C / 50.5%
h2-hermonville 23-07-2026 - 09:14 17.9°C / 66.5%
h3-hermonville 23-07-2026 - 09:10 17.4°C / 68%
h4-hermonville 23-07-2026 - 09:08 21.1°C / 56%
h2-hermonville 23-07-2026 - 09:04 17.9°C / 68%
h1-hermonville 23-07-2026 - 09:04 15.1°C / 79%
h3-hermonville 23-07-2026 - 09:00 16.7°C / 71.5%
h4-hermonville 23-07-2026 - 08:58 18.3°C / 64.5%
h2-hermonville 23-07-2026 - 08:54 17.3°C / 70%
h1-hermonville 23-07-2026 - 08:54 14.7°C / 80.5%
h3-hermonville 23-07-2026 - 08:50 16.4°C / 72%
h4-hermonville 23-07-2026 - 08:48 17.9°C / 66%
h2-hermonville 23-07-2026 - 08:44 16.9°C / 71.5%
h1-hermonville 23-07-2026 - 08:44 14.6°C / 81%
h3-hermonville 23-07-2026 - 08:40 16.4°C / 72.5%
h4-hermonville 23-07-2026 - 08:38 17.6°C / 66.5%
h2-hermonville 23-07-2026 - 08:34 16.7°C / 72%
h1-hermonville 23-07-2026 - 08:34 14.4°C / 82%
h3-hermonville 23-07-2026 - 08:30 16.4°C / 71.5%
h4-hermonville 23-07-2026 - 08:28 17.6°C / 66.5%
h2-hermonville 23-07-2026 - 08:24 16.4°C / 73%
h1-hermonville 23-07-2026 - 08:24 14.3°C / 82.5%
h3-hermonville 23-07-2026 - 08:20 16.5°C / 72%
h4-hermonville 23-07-2026 - 08:18 17.6°C / 66.5%
h2-hermonville 23-07-2026 - 08:14 16.4°C / 72%
h1-hermonville 23-07-2026 - 08:14 14°C / 82.5%
h3-hermonville 23-07-2026 - 08:10 16.2°C / 72.5%
h4-hermonville 23-07-2026 - 08:08 17.5°C / 66%
h1-hermonville 23-07-2026 - 08:04 14°C / 82.5%
h3-hermonville 23-07-2026 - 08:00 16.2°C / 72.5%
h2-hermonville 23-07-2026 - 07:54 16.1°C / 72.5%
h1-hermonville 23-07-2026 - 07:54 13.9°C / 82.5%
h3-hermonville 23-07-2026 - 07:50 15.8°C / 73.5%
h4-hermonville 23-07-2026 - 07:48 17.5°C / 65.5%
h1-hermonville 23-07-2026 - 07:44 13.8°C / 83%
h3-hermonville 23-07-2026 - 07:40 15.8°C / 73.5%
h4-hermonville 23-07-2026 - 07:38 17.5°C / 66%
h2-hermonville 23-07-2026 - 07:34 16.7°C / 70%
h1-hermonville 23-07-2026 - 07:34 13.8°C / 83%
h3-hermonville 23-07-2026 - 07:30 15.8°C / 73%
h4-hermonville 23-07-2026 - 07:28 17.3°C / 66%
h2-hermonville 23-07-2026 - 07:24 16.7°C / 70.5%
h1-hermonville 23-07-2026 - 07:24 13.9°C / 82.5%
h3-hermonville 23-07-2026 - 07:20 15.7°C / 74%
h4-hermonville 23-07-2026 - 07:18 17.6°C / 65%
h2-hermonville 23-07-2026 - 07:14 16.9°C / 69%
h1-hermonville 23-07-2026 - 07:14 14°C / 82%
h3-hermonville 23-07-2026 - 07:10 15.5°C / 74.5%
h4-hermonville 23-07-2026 - 07:08 17.5°C / 65.5%
h2-hermonville 23-07-2026 - 07:04 16.7°C / 70%
h1-hermonville 23-07-2026 - 07:04 13.6°C / 83.5%
h3-hermonville 23-07-2026 - 07:00 15.4°C / 74%
h4-hermonville 23-07-2026 - 06:58 17.1°C / 66.5%
h1-hermonville 23-07-2026 - 06:54 13.3°C / 84%
h3-hermonville 23-07-2026 - 06:50 15.4°C / 74%
h4-hermonville 23-07-2026 - 06:48 17°C / 67%
h2-hermonville 23-07-2026 - 06:44 15.8°C / 73%
h1-hermonville 23-07-2026 - 06:44 13.1°C / 85%
h3-hermonville 23-07-2026 - 06:40 15.1°C / 74.5%
h4-hermonville 23-07-2026 - 06:38 17°C / 66.5%
h2-hermonville 23-07-2026 - 06:34 15.8°C / 72%
h1-hermonville 23-07-2026 - 06:34 13.1°C / 85%
h3-hermonville 23-07-2026 - 06:30 15.3°C / 74%
h4-hermonville 23-07-2026 - 06:28 17°C / 66.5%
h2-hermonville 23-07-2026 - 06:24 16.2°C / 71%
h1-hermonville 23-07-2026 - 06:24 13.2°C / 85%
h3-hermonville 23-07-2026 - 06:20 15.4°C / 74%
h4-hermonville 23-07-2026 - 06:18 16.9°C / 66.5%
h2-hermonville 23-07-2026 - 06:14 16.6°C / 69.5%
h1-hermonville 23-07-2026 - 06:14 13.1°C / 84.5%
h3-hermonville 23-07-2026 - 06:10 15.4°C / 73.5%
h4-hermonville 23-07-2026 - 06:08 16.8°C / 66.5%
h2-hermonville 23-07-2026 - 06:04 16.2°C / 70.5%
h1-hermonville 23-07-2026 - 06:04 13.2°C / 84.5%
h3-hermonville 23-07-2026 - 06:00 15.7°C / 72.5%
h4-hermonville 23-07-2026 - 05:58 16.8°C / 67%
h2-hermonville 23-07-2026 - 05:54 16.5°C / 69.5%
h1-hermonville 23-07-2026 - 05:54 13.3°C / 84%
h3-hermonville 23-07-2026 - 05:50 15.7°C / 72.5%
h4-hermonville 23-07-2026 - 05:48 17°C / 66%
h1-hermonville 23-07-2026 - 05:44 13.4°C / 83.5%
h3-hermonville 23-07-2026 - 05:40 15.7°C / 72%
h4-hermonville 23-07-2026 - 05:38 17.1°C / 66%
h2-hermonville 23-07-2026 - 05:34 16.7°C / 68.5%
h3-hermonville 23-07-2026 - 05:30 15.7°C / 72%
h4-hermonville 23-07-2026 - 05:28 17.1°C / 65.5%
h2-hermonville 23-07-2026 - 05:24 16.9°C / 68.5%
h1-hermonville 23-07-2026 - 05:24 13.7°C / 82%
h3-hermonville 23-07-2026 - 05:20 15.8°C / 71.5%
h4-hermonville 23-07-2026 - 05:18 17.4°C / 65%
h2-hermonville 23-07-2026 - 05:14 17.3°C / 67%
h1-hermonville 23-07-2026 - 05:14 13.8°C / 81%
h3-hermonville 23-07-2026 - 05:10 15.9°C / 71.5%
h4-hermonville 23-07-2026 - 05:08 17.4°C / 64.5%
h2-hermonville 23-07-2026 - 05:04 17.9°C / 65%
h1-hermonville 23-07-2026 - 05:04 14°C / 80.5%
h3-hermonville 23-07-2026 - 05:00 16.1°C / 70.5%
h4-hermonville 23-07-2026 - 04:58 17.5°C / 64.5%
h2-hermonville 23-07-2026 - 04:54 17.6°C / 65.5%
h1-hermonville 23-07-2026 - 04:54 14.1°C / 80%
h3-hermonville 23-07-2026 - 04:50 16.2°C / 70.5%
h4-hermonville 23-07-2026 - 04:48 17.5°C / 64.5%
h2-hermonville 23-07-2026 - 04:44 18°C / 64%
h1-hermonville 23-07-2026 - 04:44 14.2°C / 79.5%
h3-hermonville 23-07-2026 - 04:40 16.2°C / 70.5%
h4-hermonville 23-07-2026 - 04:38 17.6°C / 64%
h2-hermonville 23-07-2026 - 04:34 17.8°C / 65%
h1-hermonville 23-07-2026 - 04:34 14.2°C / 79.5%
h3-hermonville 23-07-2026 - 04:30 16.4°C / 69.5%
h4-hermonville 23-07-2026 - 04:28 17.5°C / 64.5%
h2-hermonville 23-07-2026 - 04:24 18.6°C / 62.5%
h1-hermonville 23-07-2026 - 04:24 14.3°C / 79%
h3-hermonville 23-07-2026 - 04:20 16.4°C / 69.5%
h4-hermonville 23-07-2026 - 04:18 17.6°C / 63.5%
h2-hermonville 23-07-2026 - 04:14 18.4°C / 63%
h1-hermonville 23-07-2026 - 04:14 14.5°C / 78.5%
h3-hermonville 23-07-2026 - 04:10 16.5°C / 68.5%
h4-hermonville 23-07-2026 - 04:08 17.7°C / 63%
h2-hermonville 23-07-2026 - 04:04 18°C / 64%
h1-hermonville 23-07-2026 - 04:04 14.5°C / 78%
h3-hermonville 23-07-2026 - 04:00 16.7°C / 68%
h4-hermonville 23-07-2026 - 03:58 17.8°C / 62.5%
h2-hermonville 23-07-2026 - 03:54 17.9°C / 64.5%
h1-hermonville 23-07-2026 - 03:54 14.5°C / 77.5%
h3-hermonville 23-07-2026 - 03:50 16.8°C / 67.5%
h4-hermonville 23-07-2026 - 03:48 17.8°C / 62.5%
h2-hermonville 23-07-2026 - 03:44 17.6°C / 65%
h1-hermonville 23-07-2026 - 03:44 14.5°C / 77%
h3-hermonville 23-07-2026 - 03:40 16.7°C / 67%
h4-hermonville 23-07-2026 - 03:38 18°C / 62%
h2-hermonville 23-07-2026 - 03:34 17.6°C / 64.5%
h1-hermonville 23-07-2026 - 03:34 14.5°C / 76.5%
h3-hermonville 23-07-2026 - 03:30 17°C / 66.5%
h4-hermonville 23-07-2026 - 03:28 17.8°C / 62.5%
h2-hermonville 23-07-2026 - 03:24 17.4°C / 65%
h1-hermonville 23-07-2026 - 03:24 14.5°C / 76.5%
h3-hermonville 23-07-2026 - 03:20 17°C / 66.5%
h4-hermonville 23-07-2026 - 03:18 18°C / 61.5%
h2-hermonville 23-07-2026 - 03:14 17.7°C / 64%
h1-hermonville 23-07-2026 - 03:14 14.7°C / 75.5%
h3-hermonville 23-07-2026 - 03:10 16.9°C / 66.5%
h4-hermonville 23-07-2026 - 03:08 18.2°C / 61%
h2-hermonville 23-07-2026 - 03:04 18.1°C / 64%
h1-hermonville 23-07-2026 - 03:04 14.8°C / 75.5%
h3-hermonville 23-07-2026 - 03:00 17°C / 66.5%
h4-hermonville 23-07-2026 - 02:58 18.4°C / 60.5%
h2-hermonville 23-07-2026 - 02:54 17.8°C / 64.5%
h1-hermonville 23-07-2026 - 02:54 15°C / 75.5%
h3-hermonville 23-07-2026 - 02:50 17.1°C / 66%
h4-hermonville 23-07-2026 - 02:48 18.5°C / 60.5%
h2-hermonville 23-07-2026 - 02:44 17.3°C / 66%
h1-hermonville 23-07-2026 - 02:44 15°C / 75%
h3-hermonville 23-07-2026 - 02:40 17.2°C / 65.5%
h4-hermonville 23-07-2026 - 02:38 18.5°C / 60.5%
h2-hermonville 23-07-2026 - 02:34 17.5°C / 65.5%
h1-hermonville 23-07-2026 - 02:34 15.2°C / 75%
h3-hermonville 23-07-2026 - 02:30 17.4°C / 65%
h4-hermonville 23-07-2026 - 02:28 18.5°C / 60.5%
h2-hermonville 23-07-2026 - 02:24 17.5°C / 65.5%
h1-hermonville 23-07-2026 - 02:24 15.3°C / 74%
h3-hermonville 23-07-2026 - 02:20 17.5°C / 65%
h4-hermonville 23-07-2026 - 02:18 18.4°C / 60.5%
h2-hermonville 23-07-2026 - 02:14 17.5°C / 65.5%
h1-hermonville 23-07-2026 - 02:14 15.3°C / 74%
h3-hermonville 23-07-2026 - 02:10 17.4°C / 65%
h4-hermonville 23-07-2026 - 02:08 18.5°C / 60.5%
h2-hermonville 23-07-2026 - 02:04 17.6°C / 65%
h1-hermonville 23-07-2026 - 02:04 15.2°C / 74%
h3-hermonville 23-07-2026 - 02:00 17.6°C / 64.5%
h4-hermonville 23-07-2026 - 01:58 18.7°C / 59.5%
h2-hermonville 23-07-2026 - 01:54 17.9°C / 64%
h1-hermonville 23-07-2026 - 01:54 15.3°C / 73.5%
h3-hermonville 23-07-2026 - 01:50 17.6°C / 64%
h4-hermonville 23-07-2026 - 01:48 18.8°C / 59.5%
h2-hermonville 23-07-2026 - 01:44 17.7°C / 64.5%
h1-hermonville 23-07-2026 - 01:44 15.4°C / 73%
h3-hermonville 23-07-2026 - 01:40 17.7°C / 64%
h4-hermonville 23-07-2026 - 01:38 18.8°C / 59.5%
h2-hermonville 23-07-2026 - 01:34 18.2°C / 63%
h1-hermonville 23-07-2026 - 01:34 15.5°C / 72.5%
h3-hermonville 23-07-2026 - 01:30 17.8°C / 63.5%
h4-hermonville 23-07-2026 - 01:28 18.7°C / 59.5%
h2-hermonville 23-07-2026 - 01:24 18.5°C / 61.5%
h1-hermonville 23-07-2026 - 01:24 15.6°C / 72%
h3-hermonville 23-07-2026 - 01:20 18°C / 62.5%
h4-hermonville 23-07-2026 - 01:18 18.7°C / 59.5%
h2-hermonville 23-07-2026 - 01:14 18.6°C / 61%
h1-hermonville 23-07-2026 - 01:14 15.8°C / 71.5%
h3-hermonville 23-07-2026 - 01:10 17.8°C / 63%
h4-hermonville 23-07-2026 - 01:08 18.9°C / 59%
h2-hermonville 23-07-2026 - 01:04 19.3°C / 59%
h1-hermonville 23-07-2026 - 01:04 15.9°C / 71%
h3-hermonville 23-07-2026 - 01:00 17.9°C / 62.5%
h4-hermonville 23-07-2026 - 00:58 19.1°C / 58%
h2-hermonville 23-07-2026 - 00:54 19.3°C / 59%
h1-hermonville 23-07-2026 - 00:54 15.9°C / 70%
h3-hermonville 23-07-2026 - 00:50 17.9°C / 62.5%
h4-hermonville 23-07-2026 - 00:48 19.3°C / 57.5%
h2-hermonville 23-07-2026 - 00:44 19.4°C / 58%
h1-hermonville 23-07-2026 - 00:44 16.1°C / 69.5%
h3-hermonville 23-07-2026 - 00:40 18.1°C / 61.5%
h4-hermonville 23-07-2026 - 00:38 19.2°C / 57.5%
h2-hermonville 23-07-2026 - 00:34 19.9°C / 56.5%
h1-hermonville 23-07-2026 - 00:34 16.3°C / 68.5%
h3-hermonville 23-07-2026 - 00:30 18.3°C / 61.5%
h2-hermonville 23-07-2026 - 00:24 20.3°C / 56.5%
h1-hermonville 23-07-2026 - 00:24 16.6°C / 68%
h3-hermonville 23-07-2026 - 00:20 18.4°C / 61%
h4-hermonville 23-07-2026 - 00:18 19.4°C / 57.5%
h2-hermonville 23-07-2026 - 00:14 20.6°C / 55%
h1-hermonville 23-07-2026 - 00:14 16.8°C / 67.5%
h3-hermonville 23-07-2026 - 00:10 18.6°C / 60%
h4-hermonville 23-07-2026 - 00:08 19.5°C / 57%
h2-hermonville 23-07-2026 - 00:04 21.3°C / 53.5%
h1-hermonville 23-07-2026 - 00:04 16.9°C / 67%
h3-hermonville 23-07-2026 - 00:00 18.8°C / 60%